Akraberg, Faroe Islands

6:24 PM WEST on August 04, 2015 (GMT +0100)
Vagar | | Change Station
CLOSE
Current Station
Airport
Location: Vagar,
Elevation: 279 ft
Nearby Weather Stations

Elev 279 ft 62.07 °N, 7.28 °W | Updated 4 minutes ago

Light Rain
Light Rain
54 °F
Feels Like 54 °F
N
17
Wind Variable Wind from East

Today
High -- | Low -- °F
--% Chance of Precip.
Yesterday
High -- | Low -- °F
Precip. -- in
5:04 AM 9:59 PM
Waning Gibbous, 76% visible
Pressure 29.36 in
Visibility 6.2 miles
Clouds Mostly Cloudy 800 ft
Dew Point 52 °F
Humidity 94%
Rainfall 0.00 in
Snow Depth Not available.
UV 1 out of 12
Pollen Not available.
Air Quality Not available.
Flu Activity Not available.
METAR EKVG 041720Z AUTO 10015KT 9999NDV -RA BKN008/// 12/11 Q0994

More Conditions Fewer Conditions

Pressure 29.36 in
Visibility 6.2 miles
Clouds Mostly Cloudy 800 ft
Dew Point 52 °F
Humidity 94%
Rainfall 0.00 in
Snow Depth Not available.
UV 1 out of 12
Pollen Not available.
Air Quality Not available.
Flu Activity Not available.
METAR EKVG 041720Z AUTO 10015KT 9999NDV -RA BKN008/// 12/11 Q0994

More Conditions Fewer Conditions

10-Day Weather Forecast

×

Almanac

Astronomy

Aug. 04, 2015 Rise Set
Actual Time
Civil Twilight
Nautical Twilight
Astronomical Twilight
Moon
Length of Visible Light
Length of Day
Tomorrow will be .
, % of the Moon is Illuminated

Today's Extremes

Country Highs Country Lows

Community

WunderPhotos

Upload Photos

1,843,927 photos uploaded!

WunderBlogs® & News

Nearby

Air Quality

  Air Quality AQ Index Pollutant
Not available.

Snow Depth

Station Depth Elevation

Earthquake Activity

City Distance Mag. Time & Date
Minimum magnitude displayed is 2.5.

Coastal Water Temperatures

Place Temperature

Stations

Nearby Weather Stations

Station Location Temp. Windchill Dew Point Humidity Wind Precip. Elev Updated Type